createdAt,value
2019-02-16T00:04:20.890Z,5.87
2019-02-16T00:09:28.585Z,5.19
2019-02-16T00:14:36.401Z,5.65
2019-02-16T00:19:44.403Z,4.92
2019-02-16T00:24:52.162Z,4.57
2019-02-16T00:29:59.847Z,4.59
2019-02-16T00:35:07.622Z,5.10
2019-02-16T00:40:15.348Z,5.38
2019-02-16T00:45:23.448Z,4.99
2019-02-16T00:50:31.090Z,5.48
2019-02-16T00:55:38.789Z,5.00
2019-02-16T01:00:46.448Z,6.06
2019-02-16T01:05:54.309Z,5.15
2019-02-16T01:11:02.009Z,5.11
2019-02-16T01:16:09.978Z,5.41
2019-02-16T01:21:22.788Z,5.01
2019-02-16T01:26:25.479Z,5.71
2019-02-16T01:31:33.263Z,5.34
2019-02-16T01:36:40.992Z,5.03
2019-02-16T01:41:48.664Z,4.93
2019-02-16T01:46:58.352Z,5.39
2019-02-16T01:52:05.978Z,4.77
2019-02-16T01:57:15.671Z,5.08
2019-02-16T02:02:23.312Z,4.30
2019-02-16T02:07:31.239Z,5.27
2019-02-16T02:12:38.866Z,4.36
2019-02-16T02:17:46.788Z,5.87
2019-02-16T02:22:54.386Z,5.57
2019-02-16T02:28:02.534Z,6.01
2019-02-16T02:33:10.143Z,5.76
2019-02-16T02:38:17.925Z,5.12
2019-02-16T02:43:25.727Z,4.46
2019-02-16T02:48:33.818Z,5.10
2019-02-16T02:53:41.530Z,3.77
2019-02-16T02:58:49.672Z,4.72
2019-02-16T03:03:57.355Z,4.40
2019-02-16T03:09:06.889Z,3.90
2019-02-16T03:14:14.539Z,4.83
2019-02-16T03:19:22.371Z,4.25
2019-02-16T03:24:29.946Z,4.07
2019-02-16T03:29:37.628Z,3.70
2019-02-16T03:34:46.473Z,3.75
2019-02-16T03:39:54.101Z,3.79
2019-02-16T03:45:01.697Z,4.80
2019-02-16T03:50:09.382Z,4.45
2019-02-16T03:55:18.071Z,3.40
2019-02-16T04:00:25.787Z,3.58
2019-02-16T04:05:33.423Z,3.46
2019-02-16T04:10:41.177Z,3.78
2019-02-16T04:15:48.867Z,4.08
2019-02-16T04:20:57.460Z,4.17
2019-02-16T04:26:05.254Z,4.12
2019-02-16T04:31:12.998Z,4.35
2019-02-16T04:36:20.664Z,5.35
2019-02-16T04:41:28.627Z,4.37
2019-02-16T04:46:36.237Z,4.36
2019-02-16T04:51:43.981Z,4.86
2019-02-16T04:56:51.653Z,4.23
2019-02-16T05:01:59.661Z,4.96
2019-02-16T05:07:09.340Z,4.07
2019-02-16T05:12:17.069Z,4.32
2019-02-16T05:17:24.653Z,4.93
2019-02-16T05:22:32.906Z,4.45
2019-02-16T05:27:40.509Z,5.06
2019-02-16T05:32:48.421Z,3.65
2019-02-16T05:37:56.432Z,4.55
2019-02-16T05:43:04.650Z,5.29
2019-02-16T05:48:12.363Z,4.21
2019-02-16T05:53:20.357Z,4.84
2019-02-16T05:58:27.877Z,4.05
2019-02-16T06:03:35.501Z,4.14
2019-02-16T06:08:43.348Z,10.07
2019-02-16T06:13:51.284Z,4.74
2019-02-16T06:18:59.162Z,5.03
2019-02-16T06:24:06.953Z,4.91
2019-02-16T06:29:17.257Z,4.20
2019-02-16T06:34:14.979Z,5.55
2019-02-16T06:39:22.701Z,5.54
2019-02-16T06:44:30.472Z,9.93
2019-02-16T06:49:38.301Z,5.17
2019-02-16T06:54:48.024Z,5.28
2019-02-16T06:59:55.746Z,5.51
2019-02-16T07:05:03.473Z,4.92
2019-02-16T07:10:11.377Z,5.25
2019-02-16T07:15:19.143Z,5.44
2019-02-16T07:20:26.818Z,5.73
2019-02-16T07:25:34.471Z,6.43
2019-02-16T07:30:42.440Z,5.23
2019-02-16T07:35:50.109Z,5.60
2019-02-16T07:40:57.774Z,8.22
2019-02-16T07:46:05.409Z,6.43
2019-02-16T07:51:13.084Z,5.91
2019-02-16T07:56:20.996Z,5.53
2019-02-16T08:01:28.622Z,8.34
2019-02-16T08:06:36.271Z,6.31
2019-02-16T08:11:43.937Z,7.81
2019-02-16T08:16:51.837Z,8.29
2019-02-16T08:22:01.412Z,7.52
2019-02-16T08:27:09.181Z,6.54
2019-02-16T08:32:17.194Z,7.96
2019-02-16T08:37:26.008Z,7.90
2019-02-16T08:42:33.748Z,7.68
2019-02-16T08:47:41.525Z,7.08
2019-02-16T08:52:49.397Z,8.87
2019-02-16T08:57:57.191Z,7.59
2019-02-16T09:03:05.073Z,8.49
2019-02-16T09:08:13.189Z,8.35
2019-02-16T09:13:20.865Z,9.11
2019-02-16T09:18:28.594Z,8.56
2019-02-16T09:23:36.350Z,8.95
2019-02-16T09:28:44.345Z,9.63
2019-02-16T09:33:52.028Z,9.29
2019-02-16T09:38:59.801Z,10.28
2019-02-16T09:44:07.553Z,10.35
2019-02-16T09:49:15.285Z,10.61
2019-02-16T09:54:23.924Z,12.34
2019-02-16T09:59:31.748Z,11.55
2019-02-16T10:04:39.505Z,11.24
2019-02-16T10:09:47.214Z,11.71
2019-02-16T10:14:54.961Z,12.34
2019-02-16T10:20:02.571Z,26.01
2019-02-16T10:25:10.348Z,12.69
2019-02-16T10:30:18.046Z,13.60
2019-02-16T10:35:25.781Z,12.63
2019-02-16T10:40:33.413Z,13.92
2019-02-16T10:45:41.050Z,14.10
2019-02-16T10:50:48.705Z,12.84
2019-02-16T10:55:56.852Z,14.31
2019-02-16T11:01:04.517Z,13.96
2019-02-16T11:06:13.078Z,14.12
2019-02-16T11:11:20.752Z,13.37
2019-02-16T11:16:28.530Z,14.26
2019-02-16T11:21:38.508Z,14.88
2019-02-16T11:26:47.061Z,13.83
2019-02-16T11:31:54.841Z,13.68
2019-02-16T11:37:02.569Z,13.44
2019-02-16T11:42:10.389Z,14.22
2019-02-16T11:47:18.282Z,15.93
2019-02-16T11:52:26.126Z,14.11
2019-02-16T11:57:33.817Z,13.54
2019-02-16T12:02:42.113Z,13.44
2019-02-16T12:07:50.013Z,14.21
2019-02-16T12:12:58.693Z,13.71
2019-02-16T12:18:06.757Z,15.33
2019-02-16T12:23:14.448Z,12.73
2019-02-16T12:28:22.228Z,23.60
2019-02-16T12:33:30.361Z,14.72
2019-02-16T12:38:38.162Z,14.54
2019-02-16T12:43:45.860Z,13.90
2019-02-16T12:48:53.707Z,13.62
2019-02-16T12:54:01.414Z,12.83
2019-02-16T12:59:09.162Z,12.67
2019-02-16T13:04:17.080Z,13.40
2019-02-16T13:09:24.812Z,12.29
2019-02-16T13:14:32.453Z,12.86
2019-02-16T13:19:40.351Z,11.88
2019-02-16T13:24:48.008Z,11.91
2019-02-16T13:29:56.856Z,12.42
2019-02-16T13:35:04.537Z,11.97
2019-02-16T13:40:12.464Z,12.12
2019-02-16T13:45:21.281Z,12.85
2019-02-16T13:50:29.066Z,13.06
2019-02-16T13:55:36.684Z,13.02
2019-02-16T14:00:44.497Z,11.86
2019-02-16T14:05:52.221Z,11.37
2019-02-16T14:11:00.024Z,13.21
2019-02-16T14:16:07.723Z,12.48
2019-02-16T14:21:15.590Z,11.03
2019-02-16T14:26:23.417Z,12.09
2019-02-16T14:31:31.134Z,12.55
2019-02-16T14:36:38.959Z,10.63
2019-02-16T14:41:46.547Z,12.74
2019-02-16T14:46:54.313Z,11.87
2019-02-16T14:52:02.042Z,19.79
2019-02-16T14:57:09.697Z,10.48
2019-02-16T15:02:17.434Z,13.22
2019-02-16T15:07:25.061Z,10.76
2019-02-16T15:12:32.696Z,12.66
2019-02-16T15:17:40.312Z,12.43
2019-02-16T15:22:48.074Z,22.62
2019-02-16T15:27:55.650Z,11.91
2019-02-16T15:33:03.534Z,10.83
2019-02-16T15:38:11.308Z,10.56
2019-02-16T15:43:18.973Z,12.11
2019-02-16T15:48:26.574Z,10.65
2019-02-16T15:53:34.386Z,11.35
2019-02-16T15:58:42.066Z,11.03
2019-02-16T16:03:49.838Z,11.24
2019-02-16T16:08:59.181Z,11.22
2019-02-16T16:14:06.486Z,10.58
2019-02-16T16:19:12.050Z,11.41
2019-02-16T16:24:19.830Z,11.15
2019-02-16T16:29:27.454Z,11.71
2019-02-16T16:34:35.142Z,12.02
2019-02-16T16:39:42.901Z,11.16
2019-02-16T16:44:50.625Z,10.32
2019-02-16T16:49:58.251Z,11.69
2019-02-16T16:55:06.078Z,9.66
2019-02-16T17:00:13.720Z,20.94
2019-02-16T17:05:21.443Z,11.10
2019-02-16T17:10:29.070Z,11.49
2019-02-16T17:15:36.816Z,11.47
2019-02-16T17:20:44.571Z,12.47
2019-02-16T17:25:52.347Z,14.41
2019-02-16T17:31:00.034Z,12.69
2019-02-16T17:36:07.746Z,12.40
2019-02-16T17:41:15.398Z,12.96
2019-02-16T17:46:23.495Z,14.36
2019-02-16T17:51:31.266Z,13.78
2019-02-16T17:56:46.658Z,13.37
2019-02-16T18:01:46.341Z,22.10
2019-02-16T18:06:54.218Z,12.68
2019-02-16T18:12:01.831Z,13.18
2019-02-16T18:17:09.661Z,13.16
2019-02-16T18:22:17.276Z,14.06
2019-02-16T18:27:25.161Z,14.98
2019-02-16T18:32:32.738Z,14.87
2019-02-16T18:37:40.464Z,19.35
2019-02-16T18:42:48.114Z,17.04
2019-02-16T18:47:55.810Z,17.82
2019-02-16T18:53:03.696Z,17.86
2019-02-16T18:58:11.403Z,19.08
2019-02-16T19:03:19.122Z,17.40
2019-02-16T19:08:26.857Z,16.59
2019-02-16T19:13:34.700Z,16.16
2019-02-16T19:18:42.450Z,16.91
2019-02-16T19:23:51.065Z,17.75
2019-02-16T19:28:58.969Z,17.65
2019-02-16T19:34:06.683Z,16.83
2019-02-16T19:39:14.575Z,15.85
2019-02-16T19:44:22.286Z,17.63
2019-02-16T19:49:30.046Z,17.30
2019-02-16T19:54:37.819Z,17.11
2019-02-16T19:59:45.703Z,17.59
2019-02-16T20:04:53.454Z,16.10
2019-02-16T20:10:01.313Z,16.65
2019-02-16T20:15:09.150Z,17.44
2019-02-16T20:20:17.116Z,16.24
2019-02-16T20:25:24.950Z,17.47
2019-02-16T20:30:32.650Z,18.42
2019-02-16T20:35:41.209Z,18.35
2019-02-16T20:40:49.573Z,17.63
2019-02-16T20:45:57.304Z,17.83
2019-02-16T20:51:05.039Z,17.85
2019-02-16T20:56:12.787Z,19.35
2019-02-16T21:01:20.474Z,19.65
2019-02-16T21:06:28.132Z,18.76
2019-02-16T21:11:35.833Z,18.61
2019-02-16T21:16:43.445Z,18.31
2019-02-16T21:21:51.181Z,18.45
2019-02-16T21:26:58.923Z,19.42
2019-02-16T21:32:06.737Z,20.17
2019-02-16T21:37:14.334Z,18.31
2019-02-16T21:42:22.125Z,17.55
2019-02-16T21:47:29.831Z,20.35
2019-02-16T21:52:37.533Z,19.73
2019-02-16T21:57:45.282Z,21.38
2019-02-16T22:02:53.687Z,20.84
2019-02-16T22:08:01.330Z,20.43
2019-02-16T22:13:08.957Z,21.22
2019-02-16T22:18:16.685Z,21.15
2019-02-16T22:23:24.463Z,21.07
2019-02-16T22:28:32.224Z,21.18
2019-02-16T22:33:39.953Z,21.18
2019-02-16T22:38:47.643Z,22.03
2019-02-16T22:43:55.455Z,21.02
2019-02-16T22:49:03.149Z,21.26
2019-02-16T22:54:10.990Z,21.13
2019-02-16T22:59:18.666Z,20.66
2019-02-16T23:04:26.443Z,23.08
2019-02-16T23:09:34.094Z,22.54
2019-02-16T23:14:41.842Z,23.69
2019-02-16T23:19:49.454Z,22.46
2019-02-16T23:24:57.109Z,21.34
2019-02-16T23:30:04.710Z,22.48
2019-02-16T23:35:12.349Z,22.56
2019-02-16T23:40:20.105Z,21.69
2019-02-16T23:45:27.773Z,22.40
2019-02-16T23:50:35.441Z,23.23
2019-02-16T23:55:43.846Z,21.38
